Time;durP1;ratioP1;P1;durP2;ratioP2;P2;SDS_P1;SDS_P2;PMS_P1;PMS_P2;Temp;Humidity;BMP_temperature;BMP_pressure;BME280_temperature;BME280_humidity;BME280_pressure;Samples;Min_cycle;Max_cycle;Signal;HPM_P1;HPM_P2
2021/11/29 00:02:23;;;;;;;47.67;19.17;;;;;;;1.43;100.00;96853.02;4236494;83;28483;-75
2021/11/29 00:08:25;;;;;;;49.42;18.40;;;;;;;1.32;100.00;96862.55;4245398;83;28468;-75
2021/11/29 00:14:26;;;;;;;47.65;19.05;;;;;;;1.41;100.00;96856.41;4244822;83;28468;-74
2021/11/29 00:20:29;;;;;;;51.92;19.82;;;;;;;1.35;100.00;96860.77;4334056;80;28512;-71
2021/11/29 00:26:31;;;;;;;52.43;19.60;;;;;;;1.35;100.00;96870.54;4420180;80;28524;-71
2021/11/29 00:32:32;;;;;;;52.85;21.05;;;;;;;1.36;100.00;96882.77;4424690;79;28537;-70
2021/11/29 00:38:34;;;;;;;47.83;18.42;;;;;;;1.43;100.00;96882.14;4414191;80;28532;-71
2021/11/29 00:44:35;;;;;;;46.68;17.85;;;;;;;1.34;100.00;96867.10;4426255;80;28506;-71
2021/11/29 00:50:38;;;;;;;47.10;17.80;;;;;;;1.37;100.00;96867.17;4427014;80;28513;-71
2021/11/29 00:56:40;;;;;;;41.88;17.82;;;;;;;1.37;100.00;96877.23;4426181;80;28528;-73
2021/11/29 01:02:42;;;;;;;46.28;17.87;;;;;;;1.37;100.00;96898.41;4326262;80;28459;-70
2021/11/29 01:08:43;;;;;;;42.95;18.50;;;;;;;1.50;100.00;96914.64;4347526;80;28515;-75
2021/11/29 01:14:45;;;;;;;41.95;17.23;;;;;;;1.52;100.00;96894.57;4360609;81;28536;-90
2021/11/29 01:20:47;;;;;;;39.70;16.48;;;;;;;1.46;100.00;96897.61;4360370;82;28511;-87
2021/11/29 01:26:48;;;;;;;41.68;17.25;;;;;;;1.37;100.00;96893.66;4322602;80;28499;-87
2021/11/29 01:32:50;;;;;;;40.83;16.52;;;;;;;1.44;100.00;96890.38;4379190;81;28486;-90
2021/11/29 01:38:51;;;;;;;40.50;16.50;;;;;;;1.37;100.00;96885.71;4248152;83;28504;-88
2021/11/29 01:44:53;;;;;;;37.65;15.93;;;;;;;1.34;100.00;96890.11;4200026;84;28458;-87
2021/11/29 01:50:57;;;;;;;36.53;14.80;;;;;;;1.24;100.00;96899.92;4199913;85;28517;-86
2021/11/29 01:56:59;;;;;;;32.75;13.22;;;;;;;1.24;100.00;96906.02;4200134;85;28474;-87
2021/11/29 02:03:00;;;;;;;31.02;12.75;;;;;;;1.17;100.00;96913.75;4200064;85;28481;-87
2021/11/29 02:09:04;;;;;;;34.30;13.78;;;;;;;1.19;100.00;96917.80;4200226;85;28454;-87
2021/11/29 02:15:07;;;;;;;32.98;14.13;;;;;;;1.13;100.00;96913.91;4200898;84;28556;-85
2021/11/29 02:21:14;;;;;;;26.55;11.78;;;;;;;1.11;100.00;96920.24;4199969;84;28465;-87
2021/11/29 02:27:15;;;;;;;28.52;11.93;;;;;;;1.18;100.00;96918.02;4308059;81;28919;-86
2021/11/29 02:33:17;;;;;;;29.85;11.40;;;;;;;1.20;100.00;96905.39;4306352;81;28492;-86
2021/11/29 02:39:19;;;;;;;24.30;11.10;;;;;;;1.29;100.00;96908.52;4302677;82;28557;-89
2021/11/29 02:45:21;;;;;;;23.90;11.10;;;;;;;1.29;100.00;96908.52;4303123;83;28490;-89
2021/11/29 02:51:37;;;;;;;22.90;10.10;;;;;;;1.28;100.00;96911.67;4303043;83;28470;-90
2021/11/29 02:57:39;;;;;;;25.17;10.43;;;;;;;1.35;100.00;96919.52;4315339;82;28499;-86
2021/11/29 03:03:49;;;;;;;23.95;10.55;;;;;;;1.37;100.00;96923.57;4312903;82;28506;-86
2021/11/29 03:09:50;;;;;;;24.90;10.88;;;;;;;1.33;100.00;96914.47;4260553;83;28538;-89
2021/11/29 03:15:52;;;;;;;26.42;11.35;;;;;;;1.25;100.00;96924.04;4287837;82;28482;-90
2021/11/29 03:21:53;;;;;;;24.50;11.38;;;;;;;1.28;100.00;96924.91;4309657;83;28477;-84
2021/11/29 03:27:55;;;;;;;27.32;12.10;;;;;;;1.30;100.00;96933.46;4309319;83;28480;-82
2021/11/29 03:33:58;;;;;;;26.65;12.00;;;;;;;1.31;100.00;96932.93;4309178;81;28490;-84
2021/11/29 03:39:59;;;;;;;23.05;11.50;;;;;;;1.28;100.00;96934.70;4309633;81;28470;-87
2021/11/29 03:46:01;;;;;;;25.20;11.45;;;;;;;1.24;100.00;96929.84;4310311;81;28528;-87
2021/11/29 03:52:04;;;;;;;27.17;12.63;;;;;;;1.30;100.00;96920.73;4372283;81;28454;-89
2021/11/29 03:58:07;;;;;;;25.82;12.88;;;;;;;1.27;100.00;96918.53;4405068;81;28490;-88
2021/11/29 04:04:08;;;;;;;26.80;11.93;;;;;;;1.21;100.00;96913.61;4402592;80;28493;-88
2021/11/29 04:10:10;;;;;;;26.55;12.63;;;;;;;1.10;100.00;96908.55;4404927;80;28488;-85
2021/11/29 04:16:13;;;;;;;24.43;11.73;;;;;;;1.20;100.00;96913.33;4412873;80;28493;-86
2021/11/29 04:22:15;;;;;;;25.68;11.28;;;;;;;1.18;100.00;96919.34;4421991;80;28458;-83
2021/11/29 04:28:16;;;;;;;28.60;13.05;;;;;;;1.21;100.00;96925.53;4421199;80;28521;-87
2021/11/29 04:34:18;;;;;;;24.10;11.65;;;;;;;1.16;100.00;96912.95;4422048;80;28503;-88
2021/11/29 04:40:19;;;;;;;25.70;11.18;;;;;;;1.25;100.00;96925.36;4422335;80;28478;-89
2021/11/29 04:46:21;;;;;;;22.98;11.57;;;;;;;1.27;100.00;96937.06;4409490;80;28576;-87
2021/11/29 04:52:23;;;;;;;25.40;12.20;;;;;;;1.24;100.00;96942.28;4327302;82;28498;-81
2021/11/29 04:58:24;;;;;;;25.95;12.05;;;;;;;1.18;100.00;96946.63;4334711;81;28490;-84
2021/11/29 05:04:26;;;;;;;23.38;11.35;;;;;;;1.20;100.00;96941.91;4374710;81;28439;-80
2021/11/29 05:10:27;;;;;;;24.70;11.12;;;;;;;1.20;100.00;96949.86;4352359;80;28523;-80
2021/11/29 05:16:29;;;;;;;20.57;11.53;;;;;;;1.21;100.00;96950.67;4323654;82;28487;-79
2021/11/29 05:22:30;;;;;;;21.37;11.05;;;;;;;1.27;100.00;96942.36;4405642;80;28931;-81
2021/11/29 05:28:32;;;;;;;16.40;9.55;;;;;;;1.21;100.00;96945.38;4420924;80;28486;-82
2021/11/29 05:34:33;;;;;;;18.67;11.22;;;;;;;1.22;100.00;96958.38;4397394;80;28523;-80
2021/11/29 05:40:35;;;;;;;19.52;10.08;;;;;;;1.19;100.00;96954.03;4392278;80;28493;-86
2021/11/29 05:46:37;;;;;;;18.90;10.43;;;;;;;1.18;100.00;96962.52;4389095;81;28509;-87
2021/11/29 05:52:39;;;;;;;18.35;10.10;;;;;;;1.20;100.00;96971.56;4388774;81;28443;-87
2021/11/29 05:58:40;;;;;;;19.30;10.75;;;;;;;1.21;100.00;96978.47;4411841;80;28490;-84
2021/11/29 06:04:42;;;;;;;18.52;10.43;;;;;;;1.17;100.00;96989.19;4402737;80;28618;-84
2021/11/29 06:10:44;;;;;;;22.27;11.48;;;;;;;1.08;100.00;97004.03;4397225;80;28462;-83
2021/11/29 06:16:45;;;;;;;19.00;10.05;;;;;;;1.15;100.00;97021.70;4382589;80;28494;-85
2021/11/29 06:22:52;;;;;;;22.70;11.40;;;;;;;1.22;100.00;97022.45;4384650;81;28871;-90
2021/11/29 06:28:54;;;;;;;20.60;11.65;;;;;;;1.16;100.00;97029.93;4386739;80;28484;-88
2021/11/29 06:34:55;;;;;;;22.20;11.68;;;;;;;1.22;100.00;97026.41;4386299;81;28463;-88
2021/11/29 06:40:58;;;;;;;22.48;10.68;;;;;;;1.13;100.00;97021.91;4315391;81;28496;-82
2021/11/29 06:46:59;;;;;;;23.65;11.53;;;;;;;1.13;100.00;97030.38;4288125;82;28480;-84
2021/11/29 06:53:01;;;;;;;22.52;11.05;;;;;;;1.07;100.00;97039.47;4330951;82;28508;-82
2021/11/29 06:59:03;;;;;;;25.80;12.25;;;;;;;1.09;100.00;97043.23;4330954;82;28582;-83
2021/11/29 07:05:06;;;;;;;25.80;11.12;;;;;;;1.09;100.00;97062.59;4394396;80;28493;-85
2021/11/29 07:11:09;;;;;;;25.12;10.53;;;;;;;1.00;100.00;97057.78;4407166;81;28469;-82
2021/11/29 07:17:10;;;;;;;21.52;10.68;;;;;;;0.93;100.00;97063.93;4334357;81;28477;-80
2021/11/29 07:23:12;;;;;;;23.85;11.60;;;;;;;0.81;100.00;97066.99;4399366;80;28472;-86
2021/11/29 07:29:15;;;;;;;24.30;11.15;;;;;;;0.88;100.00;97053.20;4391960;80;28512;-82
2021/11/29 07:35:16;;;;;;;24.90;11.20;;;;;;;0.88;100.00;97056.34;4307099;80;28464;-81
2021/11/29 07:41:18;;;;;;;25.57;11.20;;;;;;;0.92;100.00;97061.52;4427433;79;28550;-77
2021/11/29 07:47:20;;;;;;;24.70;10.70;;;;;;;0.92;100.00;97080.84;4389937;80;28454;-75
2021/11/29 07:53:21;;;;;;;23.90;10.63;;;;;;;1.01;100.00;97080.06;4384242;80;28468;-77
2021/11/29 07:59:23;;;;;;;21.68;10.40;;;;;;;1.06;100.00;97080.20;4400021;79;28455;-75
2021/11/29 08:05:27;;;;;;;22.73;10.43;;;;;;;0.99;100.00;97082.63;4341767;80;28440;-76
2021/11/29 08:11:29;;;;;;;23.75;10.58;;;;;;;0.94;100.00;97095.19;4243871;83;28478;-76
2021/11/29 08:17:32;;;;;;;21.68;10.53;;;;;;;0.99;100.00;97090.06;4260740;82;28502;-78
2021/11/29 08:23:34;;;;;;;25.72;12.35;;;;;;;0.93;100.00;97103.63;4117981;85;28540;-75
2021/11/29 08:29:36;;;;;;;21.73;10.63;;;;;;;0.99;100.00;97101.15;4238099;81;28521;-82
2021/11/29 08:35:38;;;;;;;21.48;10.20;;;;;;;1.02;100.00;97113.94;4308454;81;28451;-85
2021/11/29 08:41:40;;;;;;;21.07;10.40;;;;;;;1.05;100.00;97120.94;4280521;81;28540;-75
2021/11/29 08:47:42;;;;;;;23.20;11.05;;;;;;;1.24;100.00;97119.66;4279953;83;28509;-74
2021/11/29 08:53:44;;;;;;;22.67;10.88;;;;;;;1.29;100.00;97123.77;4270292;82;28498;-81
2021/11/29 08:59:46;;;;;;;19.87;9.90;;;;;;;1.37;100.00;97124.81;4268415;81;28482;-74
2021/11/29 09:05:49;;;;;;;17.02;9.80;;;;;;;1.31;100.00;97123.56;4268280;83;28486;-75
2021/11/29 09:11:51;;;;;;;18.30;9.38;;;;;;;1.49;100.00;97125.41;4266217;81;28475;-75
2021/11/29 09:17:53;;;;;;;22.48;11.35;;;;;;;1.44;100.00;97138.52;4270546;80;28474;-76
2021/11/29 09:23:54;;;;;;;18.87;10.05;;;;;;;1.46;100.00;97136.45;4318287;81;28500;-75
2021/11/29 09:29:56;;;;;;;18.65;9.58;;;;;;;1.39;100.00;97132.55;4286124;82;28477;-74
2021/11/29 09:35:58;;;;;;;16.60;8.68;;;;;;;1.44;100.00;97139.84;4287812;83;28596;-75
2021/11/29 09:42:01;;;;;;;18.17;9.80;;;;;;;1.41;100.00;97154.83;4298963;81;28533;-75
2021/11/29 09:48:04;;;;;;;17.87;8.80;;;;;;;1.38;100.00;97148.94;4236306;83;28496;-73
2021/11/29 09:54:08;;;;;;;18.57;9.35;;;;;;;1.33;100.00;97158.57;4352453;79;28469;-74
2021/11/29 10:00:21;;;;;;;21.25;10.10;;;;;;;1.34;100.00;97158.86;4345633;81;28490;-74
2021/11/29 10:06:23;;;;;;;25.25;11.88;;;;;;;1.40;100.00;97156.68;4339558;81;28869;-74
2021/11/29 10:12:28;;;;;;;22.85;11.03;;;;;;;1.29;100.00;97164.02;4360215;79;28544;-72
2021/11/29 10:18:29;;;;;;;23.13;11.73;;;;;;;1.23;100.00;97165.16;4393436;79;28516;-72
2021/11/29 10:24:31;;;;;;;22.32;11.10;;;;;;;1.31;100.00;97169.90;4378511;79;28508;-78
2021/11/29 10:30:33;;;;;;;25.60;12.88;;;;;;;1.15;100.00;97182.67;4367154;79;28527;-69
2021/11/29 10:36:45;;;;;;;20.85;11.08;;;;;;;1.18;100.00;97184.05;4375716;79;28489;-71
2021/11/29 10:42:48;;;;;;;21.75;11.53;;;;;;;1.25;100.00;97183.49;4363895;80;28598;-78
2021/11/29 10:48:52;;;;;;;20.15;10.82;;;;;;;1.27;100.00;97186.73;4347182;80;28485;-78
2021/11/29 10:54:56;;;;;;;23.65;12.23;;;;;;;1.24;100.00;97197.77;4374043;81;28585;-75
2021/11/29 11:00:58;;;;;;;20.57;11.10;;;;;;;1.18;100.00;97186.70;4338005;80;44442;-78
2021/11/29 11:07:04;;;;;;;18.98;11.03;;;;;;;0.91;100.00;97200.15;4389393;80;28442;-74
2021/11/29 11:13:05;;;;;;;17.07;9.88;;;;;;;1.07;100.00;97196.95;4397408;79;28466;-69
2021/11/29 11:19:24;;;;;;;18.77;10.58;;;;;;;1.18;100.00;97192.81;4392631;79;28537;-69
2021/11/29 11:25:34;;;;;;;20.20;10.72;;;;;;;1.21;100.00;97204.29;4418303;79;28481;-69
2021/11/29 11:31:36;;;;;;;18.87;11.10;;;;;;;1.24;100.00;97192.47;4427231;79;28495;-68
2021/11/29 11:37:43;;;;;;;18.85;10.63;;;;;;;1.26;100.00;97198.34;4443573;79;28844;-68
2021/11/29 11:43:46;;;;;;;17.98;10.03;;;;;;;1.37;100.00;97191.02;4430242;79;28447;-69
2021/11/29 11:49:48;;;;;;;21.25;11.85;;;;;;;1.39;100.00;97203.52;4377161;80;28472;-69
2021/11/29 11:55:53;;;;;;;19.25;11.22;;;;;;;1.41;100.00;97202.49;4374423;80;28457;-68
2021/11/29 12:01:57;;;;;;;20.55;10.78;;;;;;;1.36;100.00;97202.64;4337627;80;28508;-70
2021/11/29 12:07:58;;;;;;;17.60;10.10;;;;;;;1.37;100.00;97208.77;4337824;80;28491;-69
2021/11/29 12:14:36;;;;;;;19.50;10.60;;;;;;;1.52;100.00;97218.50;4428358;79;28456;-70
2021/11/29 12:20:36;;;;;;;19.35;10.05;;;;;;;1.39;100.00;97223.91;4405276;79;28534;-69
2021/11/29 12:26:49;;;;;;;17.45;10.10;;;;;;;1.41;100.00;97223.18;4419427;78;28547;-70
2021/11/29 12:32:59;;;;;;;18.35;9.28;;;;;;;1.35;100.00;97232.80;4425804;79;28472;-69
2021/11/29 12:38:59;;;;;;;14.93;8.83;;;;;;;1.25;100.00;97233.30;4418343;79;28478;-70
2021/11/29 12:45:16;;;;;;;14.20;8.33;;;;;;;1.39;100.00;97237.95;4432285;79;28502;-69
2021/11/29 12:51:43;;;;;;;14.45;8.18;;;;;;;1.39;100.00;97243.25;4412574;79;28460;-69
2021/11/29 12:57:46;;;;;;;15.30;8.58;;;;;;;1.34;100.00;97245.75;4425874;79;28445;-69
2021/11/29 13:03:52;;;;;;;20.92;9.10;;;;;;;1.36;100.00;97252.95;4415809;78;28486;-70
2021/11/29 13:09:53;;;;;;;13.43;8.25;;;;;;;1.34;100.00;97262.95;4402138;78;28505;-67
2021/11/29 13:16:04;;;;;;;14.80;7.80;;;;;;;1.35;100.00;97265.90;4410720;79;28478;-68
2021/11/29 13:22:09;;;;;;;15.43;8.98;;;;;;;1.39;100.00;97271.58;4391314;79;28508;-67
2021/11/29 13:28:11;;;;;;;17.63;9.30;;;;;;;1.50;100.00;97276.68;4356169;79;28505;-68
2021/11/29 13:34:35;;;;;;;18.40;10.25;;;;;;;1.37;100.00;97294.83;4358507;80;28496;-67
2021/11/29 13:40:37;;;;;;;15.35;9.08;;;;;;;1.40;100.00;97303.66;4407837;79;28492;-67
2021/11/29 13:46:38;;;;;;;17.67;9.55;;;;;;;1.24;100.00;97303.66;4384611;79;28500;-77
2021/11/29 13:52:51;;;;;;;14.33;8.80;;;;;;;1.18;100.00;97301.36;4344700;79;28455;-67
2021/11/29 13:58:53;;;;;;;15.40;9.43;;;;;;;1.15;100.00;97308.91;4370651;79;28530;-68
2021/11/29 14:04:57;;;;;;;17.82;9.73;;;;;;;1.08;100.00;97320.86;4358426;79;28509;-69
2021/11/29 14:11:03;;;;;;;18.70;10.28;;;;;;;1.01;100.00;97324.88;4364041;79;28527;-68
2021/11/29 14:17:06;;;;;;;16.45;10.53;;;;;;;0.92;100.00;97338.05;4372682;79;28515;-67
2021/11/29 14:23:08;;;;;;;19.05;10.75;;;;;;;0.95;100.00;97353.49;4369780;79;28529;-66
2021/11/29 14:29:23;;;;;;;17.02;10.00;;;;;;;0.80;100.00;97347.97;4403288;79;28548;-68
2021/11/29 14:35:30;;;;;;;20.47;10.43;;;;;;;0.89;100.00;97361.77;4384260;80;28481;-68
2021/11/29 14:41:52;;;;;;;22.98;12.25;;;;;;;0.85;100.00;97370.33;4387181;79;28515;-68
2021/11/29 14:47:56;;;;;;;17.52;10.25;;;;;;;0.75;100.00;97373.42;4384659;80;28494;-68
2021/11/29 14:53:59;;;;;;;19.02;10.25;;;;;;;0.77;100.00;97385.93;4368328;79;28471;-69
2021/11/29 15:00:08;;;;;;;18.37;10.23;;;;;;;0.78;100.00;97393.67;4386782;79;28468;-69
2021/11/29 15:06:21;;;;;;;20.10;10.05;;;;;;;0.77;100.00;97401.80;4375210;80;28498;-69
2021/11/29 15:12:24;;;;;;;19.23;10.70;;;;;;;0.73;100.00;97413.31;4305868;81;28450;-69
2021/11/29 15:18:28;;;;;;;20.60;9.55;;;;;;;0.69;100.00;97424.81;4319814;78;28481;-68
2021/11/29 15:24:37;;;;;;;17.45;9.85;;;;;;;0.62;100.00;97433.78;4378966;79;28508;-68
2021/11/29 15:30:44;;;;;;;17.92;8.78;;;;;;;0.63;100.00;97453.43;4361992;79;28545;-68
2021/11/29 15:36:46;;;;;;;16.15;8.40;;;;;;;0.50;100.00;97472.77;4374094;79;28472;-68
2021/11/29 15:43:11;;;;;;;16.50;8.13;;;;;;;0.59;100.00;97470.71;4386059;79;28496;-68
2021/11/29 15:49:15;;;;;;;11.93;6.90;;;;;;;0.51;100.00;97478.85;4353397;79;28486;-68
2021/11/29 15:55:15;;;;;;;14.65;7.28;;;;;;;0.44;100.00;97487.31;4356206;79;28484;-69
2021/11/29 16:01:20;;;;;;;14.13;7.42;;;;;;;0.55;100.00;97498.08;4380196;79;28485;-75
2021/11/29 16:07:23;;;;;;;14.23;7.28;;;;;;;0.40;100.00;97502.77;4338895;80;28514;-75
2021/11/29 16:13:27;;;;;;;12.68;6.70;;;;;;;0.57;100.00;97514.24;4381462;81;28494;-75
2021/11/29 16:19:28;;;;;;;14.10;6.72;;;;;;;0.60;100.00;97516.50;4349790;80;28477;-74
2021/11/29 16:25:30;;;;;;;13.25;7.37;;;;;;;0.55;100.00;97526.38;4405991;80;28510;-74
2021/11/29 16:31:32;;;;;;;13.83;7.58;;;;;;;0.56;100.00;97526.67;4406430;80;28509;-75
2021/11/29 16:37:33;;;;;;;15.55;7.50;;;;;;;0.57;100.00;97548.63;4405367;80;28524;-75
2021/11/29 16:43:35;;;;;;;15.43;6.70;;;;;;;0.52;100.00;97563.78;4374757;81;28456;-74
2021/11/29 16:49:37;;;;;;;13.35;6.85;;;;;;;0.61;100.00;97567.06;4375253;81;28468;-71
2021/11/29 16:55:38;;;;;;;17.48;8.28;;;;;;;0.63;100.00;97561.05;4400871;79;28527;-72
2021/11/29 17:01:40;;;;;;;17.12;7.83;;;;;;;0.67;100.00;97572.84;4348291;80;28497;-72
2021/11/29 17:07:41;;;;;;;17.05;7.83;;;;;;;0.71;100.00;97591.77;4356807;79;28459;-73
2021/11/29 17:13:43;;;;;;;15.00;8.00;;;;;;;0.74;100.00;97589.55;4348527;81;28491;-71
2021/11/29 17:19:46;;;;;;;17.05;7.70;;;;;;;0.73;100.00;97601.64;4366753;80;28577;-71
2021/11/29 17:25:49;;;;;;;16.00;7.70;;;;;;;0.79;100.00;97608.28;4388342;80;28466;-72
2021/11/29 17:31:51;;;;;;;13.62;6.60;;;;;;;0.78;100.00;97597.89;4375123;79;28475;-71
2021/11/29 17:37:54;;;;;;;12.58;6.33;;;;;;;0.74;100.00;97602.77;4398048;80;28465;-74
2021/11/29 17:43:56;;;;;;;14.95;6.83;;;;;;;0.81;100.00;97612.03;4388404;80;28454;-75
2021/11/29 17:49:57;;;;;;;14.43;7.55;;;;;;;0.84;100.00;97605.03;4391880;79;28513;-70
2021/11/29 17:56:01;;;;;;;15.15;7.47;;;;;;;0.81;100.00;97609.38;4315344;80;28509;-72
2021/11/29 18:02:05;;;;;;;18.92;8.53;;;;;;;0.82;100.00;97621.09;4275350;83;28499;-71
2021/11/29 18:08:35;;;;;;;18.73;9.10;;;;;;;0.76;100.00;97608.66;4331214;81;28469;-74
2021/11/29 18:14:26;;;;;;;17.95;8.75;;;;;;;0.69;100.00;97613.95;4345092;81;28560;-75
2021/11/29 18:20:28;;;;;;;20.68;10.03;;;;;;;0.70;100.00;97620.08;4371370;79;28536;-72
2021/11/29 18:26:29;;;;;;;18.37;9.65;;;;;;;0.70;100.00;97621.41;4316366;82;28469;-74
2021/11/29 18:32:31;;;;;;;20.45;9.78;;;;;;;0.70;100.00;97622.72;4284037;81;28461;-71
2021/11/29 18:38:32;;;;;;;23.15;11.05;;;;;;;0.61;100.00;97626.58;4310557;80;28476;-70
2021/11/29 18:44:34;;;;;;;22.07;10.58;;;;;;;0.67;100.00;97634.52;4314503;80;28457;-69
2021/11/29 18:50:38;;;;;;;20.88;10.75;;;;;;;0.68;100.00;97639.31;4324004;80;28540;-68
2021/11/29 18:56:40;;;;;;;23.22;11.53;;;;;;;0.76;100.00;97638.30;4314019;80;28524;-69
2021/11/29 19:02:42;;;;;;;25.55;12.45;;;;;;;0.75;100.00;97638.79;4316763;80;28513;-70
2021/11/29 19:08:44;;;;;;;22.20;10.98;;;;;;;0.82;100.00;97641.44;4369448;79;28524;-69
2021/11/29 19:14:45;;;;;;;24.23;12.75;;;;;;;0.73;100.00;97634.22;4394793;79;28454;-76
2021/11/29 19:20:47;;;;;;;25.05;12.18;;;;;;;0.70;100.00;97647.86;4350315;79;28475;-80
2021/11/29 19:26:51;;;;;;;24.12;11.83;;;;;;;0.77;100.00;97651.30;4355705;79;28448;-75
2021/11/29 19:32:54;;;;;;;26.75;12.75;;;;;;;0.87;100.00;97650.09;4384862;79;28552;-69
2021/11/29 19:38:57;;;;;;;26.50;13.03;;;;;;;0.87;100.00;97649.59;4271148;81;28524;-71
2021/11/29 19:45:01;;;;;;;25.88;12.85;;;;;;;0.92;100.00;97656.93;4350039;81;28555;-72
2021/11/29 19:51:04;;;;;;;24.72;12.33;;;;;;;1.01;100.00;97670.77;4348829;81;28483;-68
2021/11/29 19:57:05;;;;;;;26.25;12.90;;;;;;;0.96;100.00;97668.73;4341594;80;28572;-69
2021/11/29 20:03:09;;;;;;;24.12;11.48;;;;;;;0.94;100.00;97672.92;4382698;79;28505;-81
2021/11/29 20:09:11;;;;;;;25.37;12.37;;;;;;;0.98;100.00;97682.57;4396476;79;28485;-85
2021/11/29 20:15:16;;;;;;;25.12;11.40;;;;;;;0.97;100.00;97692.85;4358500;80;28459;-85
2021/11/29 20:21:21;;;;;;;22.07;11.53;;;;;;;1.02;100.00;97685.63;4401896;79;28474;-85
2021/11/29 20:27:22;;;;;;;26.07;12.80;;;;;;;1.06;100.00;97691.64;4373297;80;28549;-84
2021/11/29 20:33:24;;;;;;;26.20;11.83;;;;;;;1.03;100.00;97687.26;4378848;80;28473;-80
2021/11/29 20:39:26;;;;;;;21.90;11.33;;;;;;;0.98;100.00;97701.09;4361462;80;28503;-82
2021/11/29 20:45:28;;;;;;;23.38;12.15;;;;;;;1.05;100.00;97697.16;4371463;80;28501;-83
2021/11/29 20:51:30;;;;;;;22.10;11.10;;;;;;;1.09;100.00;97711.61;4372230;80;28472;-82
2021/11/29 20:57:33;;;;;;;23.90;11.15;;;;;;;1.07;100.00;97705.70;4328753;80;28570;-72
2021/11/29 21:03:39;;;;;;;24.10;11.45;;;;;;;1.12;100.00;97704.58;4444955;79;28476;-82
2021/11/29 21:09:41;;;;;;;23.12;11.20;;;;;;;1.14;100.00;97711.80;4417835;79;28551;-84
2021/11/29 21:15:52;;;;;;;22.02;11.22;;;;;;;1.14;100.00;97713.13;4409000;79;28449;-85
2021/11/29 21:21:55;;;;;;;23.75;11.35;;;;;;;1.15;100.00;97720.57;4416615;78;28551;-85
2021/11/29 21:27:57;;;;;;;23.83;11.33;;;;;;;1.13;100.00;97717.31;4383829;80;28484;-84
2021/11/29 21:33:59;;;;;;;22.98;10.65;;;;;;;1.07;100.00;97726.36;4348906;79;28484;-86
2021/11/29 21:40:06;;;;;;;24.07;12.03;;;;;;;1.11;100.00;97732.89;4356958;79;28472;-84
2021/11/29 21:46:07;;;;;;;26.20;12.58;;;;;;;1.10;100.00;97729.95;4367584;79;28533;-82
2021/11/29 21:52:09;;;;;;;20.32;10.68;;;;;;;1.14;100.00;97745.42;4358147;79;28598;-81
2021/11/29 21:58:11;;;;;;;24.27;12.28;;;;;;;1.14;100.00;97748.06;4379071;79;28458;-84
2021/11/29 22:04:13;;;;;;;24.60;12.28;;;;;;;1.14;100.00;97754.69;4348705;79;28474;-84
2021/11/29 22:10:15;;;;;;;25.68;11.80;;;;;;;1.16;100.00;97765.39;4356646;80;28503;-84
2021/11/29 22:16:17;;;;;;;29.40;13.83;;;;;;;1.14;100.00;97767.92;4285347;81;28584;-84
2021/11/29 22:22:20;;;;;;;27.50;12.10;;;;;;;1.14;100.00;97767.92;4266001;81;28441;-84
2021/11/29 22:28:22;;;;;;;28.42;13.50;;;;;;;1.16;100.00;97764.06;4277466;80;28469;-82
2021/11/29 22:34:26;;;;;;;27.37;12.95;;;;;;;1.17;100.00;97771.48;4355999;79;28473;-82
2021/11/29 22:40:29;;;;;;;27.55;12.43;;;;;;;1.13;100.00;97774.23;4347514;79;28439;-83
2021/11/29 22:46:31;;;;;;;31.05;13.80;;;;;;;1.10;100.00;97765.69;4350669;79;28563;-82
2021/11/29 22:52:33;;;;;;;27.52;13.45;;;;;;;1.07;100.00;97762.09;4362303;79;28531;-81
2021/11/29 22:58:36;;;;;;;24.63;11.63;;;;;;;1.07;100.00;97772.69;4379888;79;28451;-79
2021/11/29 23:04:37;;;;;;;23.70;11.25;;;;;;;1.13;100.00;97778.20;4399650;81;28514;-81
2021/11/29 23:10:39;;;;;;;24.40;11.20;;;;;;;1.09;100.00;97772.49;4432805;79;28505;-80
2021/11/29 23:16:44;;;;;;;24.15;11.38;;;;;;;1.05;100.00;97771.28;4383981;81;28475;-80
2021/11/29 23:22:48;;;;;;;22.42;10.28;;;;;;;1.03;100.00;97791.31;4380131;81;28544;-82
2021/11/29 23:28:49;;;;;;;24.20;11.88;;;;;;;1.14;100.00;97784.61;4400988;78;28479;-84
2021/11/29 23:34:51;;;;;;;25.15;11.75;;;;;;;1.11;100.00;97796.93;4392699;79;28444;-83
2021/11/29 23:40:54;;;;;;;24.27;11.50;;;;;;;1.16;100.00;97789.22;4348113;80;28438;-85
2021/11/29 23:46:59;;;;;;;26.82;11.45;;;;;;;1.23;100.00;97809.88;4430932;80;28508;-84
2021/11/29 23:53:01;;;;;;;27.82;12.55;;;;;;;1.13;100.00;97806.00;4434963;80;28489;-87
2021/11/29 23:59:03;;;;;;;24.43;11.68;;;;;;;1.01;100.00;97811.05;4437639;80;28872;-86
